createdAt,value
2023-03-21T00:01:16.474Z,86.62
2023-03-21T00:03:44.333Z,87.09
2023-03-21T00:06:12.604Z,86.03
2023-03-21T00:08:40.281Z,85.87
2023-03-21T00:11:08.288Z,86.35
2023-03-21T00:13:38.532Z,86.39
2023-03-21T00:16:12.220Z,86.62
2023-03-21T00:18:52.306Z,86.14
2023-03-21T00:24:08.169Z,86.30
2023-03-21T00:26:35.761Z,86.79
2023-03-21T00:29:03.211Z,85.55
2023-03-21T00:31:30.772Z,87.53
2023-03-21T00:33:59.716Z,86.14
2023-03-21T00:36:27.310Z,86.36
2023-03-21T00:38:54.848Z,87.36
2023-03-21T00:41:39.248Z,89.19
2023-03-21T00:44:09.283Z,87.78
2023-03-21T00:46:45.481Z,86.93
2023-03-21T00:49:20.828Z,86.25
2023-03-21T00:51:51.323Z,86.75
2023-03-21T00:54:19.094Z,86.40
2023-03-21T00:56:46.614Z,87.94
2023-03-21T00:59:14.180Z,87.00
2023-03-21T01:01:41.700Z,86.81
2023-03-21T01:04:13.641Z,86.38
2023-03-21T01:06:42.991Z,86.09
2023-03-21T01:09:13.062Z,86.09
2023-03-21T01:11:40.588Z,85.97
2023-03-21T01:14:21.292Z,86.36
2023-03-21T01:16:50.134Z,86.82
2023-03-21T01:19:25.604Z,86.63
2023-03-21T01:21:58.185Z,86.90
2023-03-21T01:24:25.793Z,86.07
2023-03-21T01:26:53.318Z,86.18
2023-03-21T01:29:21.156Z,86.90
2023-03-21T01:31:48.810Z,86.51
2023-03-21T01:34:16.526Z,87.73
2023-03-21T01:36:44.053Z,87.01
2023-03-21T01:39:13.003Z,86.26
2023-03-21T01:41:43.981Z,86.61
2023-03-21T01:44:14.690Z,86.08
2023-03-21T01:47:03.531Z,86.02
2023-03-21T01:49:34.368Z,86.95
2023-03-21T01:52:11.535Z,86.86
2023-03-21T01:54:42.225Z,88.26
2023-03-21T01:57:10.812Z,87.36
2023-03-21T01:59:39.113Z,87.60
2023-03-21T02:02:07.297Z,87.39
2023-03-21T02:04:35.133Z,87.41
2023-03-21T02:07:04.075Z,87.10
2023-03-21T02:09:33.505Z,86.83
2023-03-21T02:12:02.628Z,86.77
2023-03-21T02:14:30.182Z,87.15
2023-03-21T02:17:00.989Z,87.59
2023-03-21T02:19:47.596Z,88.51
2023-03-21T02:22:22.964Z,88.12
2023-03-21T02:25:06.187Z,88.09
2023-03-21T02:27:39.728Z,87.14
2023-03-21T02:30:33.457Z,88.38
2023-03-21T02:33:17.860Z,88.06
2023-03-21T02:35:54.349Z,87.71
2023-03-21T02:38:24.989Z,88.60
2023-03-21T02:40:53.760Z,88.52
2023-03-21T02:43:25.551Z,86.64
2023-03-21T02:45:53.886Z,88.56
2023-03-21T02:48:30.980Z,87.54
2023-03-21T02:51:01.335Z,87.45
2023-03-21T02:53:31.691Z,87.09
2023-03-21T02:55:59.270Z,87.36
2023-03-21T02:58:27.237Z,86.80
2023-03-21T03:00:56.217Z,86.89
2023-03-21T03:03:33.318Z,86.95
2023-03-21T03:06:02.071Z,87.06
2023-03-21T03:08:43.131Z,87.89
2023-03-21T03:11:18.816Z,87.30
2023-03-21T03:13:51.167Z,88.16
2023-03-21T03:16:21.860Z,86.88
2023-03-21T03:18:50.592Z,87.39
2023-03-21T03:21:19.222Z,86.84
2023-03-21T03:23:48.791Z,87.13
2023-03-21T03:26:16.940Z,87.44
2023-03-21T03:28:45.878Z,87.48
2023-03-21T03:31:14.973Z,87.10
2023-03-21T03:33:44.655Z,87.61
2023-03-21T03:36:28.411Z,87.75
2023-03-21T03:38:59.750Z,87.46
2023-03-21T03:41:29.409Z,88.08
2023-03-21T03:43:58.529Z,88.26
2023-03-21T03:46:28.873Z,89.11
2023-03-21T03:48:56.784Z,88.65
2023-03-21T03:51:25.016Z,87.85
2023-03-21T03:53:52.965Z,88.48
2023-03-21T03:56:22.337Z,87.86
2023-03-21T03:58:49.972Z,88.61
2023-03-21T04:01:17.706Z,88.91
2023-03-21T04:03:50.652Z,88.50
2023-03-21T04:06:22.075Z,87.82
2023-03-21T04:08:51.005Z,88.25
2023-03-21T04:11:18.475Z,87.81
2023-03-21T04:13:47.333Z,87.75
2023-03-21T04:16:14.790Z,88.27
2023-03-21T04:18:42.468Z,88.79
2023-03-21T04:21:10.742Z,88.10
2023-03-21T04:23:38.309Z,87.58
2023-03-21T04:26:06.054Z,89.48
2023-03-21T04:28:33.699Z,88.85
2023-03-21T04:31:08.976Z,88.07
2023-03-21T04:33:43.528Z,88.91
2023-03-21T04:36:27.210Z,88.29
2023-03-21T04:38:54.861Z,90.95
2023-03-21T04:41:22.338Z,88.48
2023-03-21T04:43:49.894Z,87.77
2023-03-21T04:46:18.822Z,87.55
2023-03-21T04:48:47.167Z,87.62
2023-03-21T04:51:14.643Z,87.92
2023-03-21T04:53:45.060Z,87.96
2023-03-21T04:56:12.954Z,88.68
2023-03-21T04:58:40.424Z,88.08
2023-03-21T05:01:08.176Z,88.10
2023-03-21T05:03:40.183Z,87.97
2023-03-21T05:06:08.563Z,88.01
2023-03-21T05:08:36.558Z,88.46
2023-03-21T05:11:04.054Z,87.85
2023-03-21T05:13:31.590Z,88.00
2023-03-21T05:15:59.143Z,89.16
2023-03-21T05:18:26.820Z,88.05
2023-03-21T05:20:55.700Z,87.92
2023-03-21T05:23:23.548Z,88.15
2023-03-21T05:25:51.057Z,88.32
2023-03-21T05:28:23.654Z,87.87
2023-03-21T05:30:51.157Z,87.78
2023-03-21T05:33:18.710Z,89.31
2023-03-21T05:35:46.521Z,88.17
2023-03-21T05:38:15.497Z,87.91
2023-03-21T05:40:43.046Z,88.07
2023-03-21T05:43:10.696Z,88.14
2023-03-21T05:45:38.495Z,88.09
2023-03-21T05:48:06.569Z,88.01
2023-03-21T05:50:34.086Z,91.41
2023-03-21T05:53:01.682Z,88.23
2023-03-21T05:55:30.718Z,88.46
2023-03-21T05:57:58.184Z,89.78
2023-03-21T06:00:26.068Z,90.15
2023-03-21T06:02:53.614Z,89.59
2023-03-21T06:05:21.168Z,89.28
2023-03-21T06:07:48.633Z,88.93
2023-03-21T06:10:16.170Z,90.19
2023-03-21T06:12:45.080Z,89.08
2023-03-21T06:15:12.963Z,89.11
2023-03-21T06:17:40.966Z,89.78
2023-03-21T06:20:09.090Z,89.27
2023-03-21T06:22:36.779Z,88.65
2023-03-21T06:25:04.485Z,88.68
2023-03-21T06:27:31.925Z,88.39
2023-03-21T06:30:00.931Z,88.83
2023-03-21T06:32:28.524Z,89.62
2023-03-21T06:34:56.216Z,88.70
2023-03-21T06:37:23.739Z,88.81
2023-03-21T06:39:51.377Z,89.02
2023-03-21T06:42:18.876Z,88.91
2023-03-21T06:44:46.387Z,88.95
2023-03-21T06:47:15.679Z,88.78
2023-03-21T06:49:43.896Z,88.64
2023-03-21T06:52:11.474Z,89.76
2023-03-21T06:54:38.987Z,90.94
2023-03-21T06:57:06.529Z,90.75
2023-03-21T06:59:34.110Z,89.56
2023-03-21T07:02:01.604Z,89.81
2023-03-21T07:04:30.486Z,89.58
2023-03-21T07:06:58.068Z,89.63
2023-03-21T07:09:28.118Z,88.89
2023-03-21T07:11:56.032Z,89.14
2023-03-21T07:14:23.903Z,90.67
2023-03-21T07:16:51.571Z,90.25
2023-03-21T07:19:19.109Z,89.23
2023-03-21T07:21:48.001Z,88.63
2023-03-21T07:24:15.520Z,89.71
2023-03-21T07:26:43.095Z,88.98
2023-03-21T07:29:10.587Z,89.73
2023-03-21T07:31:39.939Z,89.11
2023-03-21T07:34:07.522Z,89.76
2023-03-21T07:36:35.008Z,89.12
2023-03-21T07:39:04.309Z,89.49
2023-03-21T07:41:31.870Z,89.31
2023-03-21T07:43:59.340Z,89.38
2023-03-21T07:46:27.123Z,89.07
2023-03-21T07:48:54.701Z,89.45
2023-03-21T07:51:22.225Z,90.73
2023-03-21T07:53:49.665Z,91.26
2023-03-21T07:56:18.606Z,90.68
2023-03-21T07:58:46.142Z,91.60
2023-03-21T08:01:13.627Z,90.81
2023-03-21T08:03:41.128Z,90.66
2023-03-21T08:06:09.142Z,90.09
2023-03-21T08:08:36.598Z,89.87
2023-03-21T08:11:04.700Z,90.03
2023-03-21T08:13:33.540Z,89.86
2023-03-21T08:16:01.202Z,89.60
2023-03-21T08:18:28.702Z,91.04
2023-03-21T08:20:56.558Z,89.87
2023-03-21T08:23:24.766Z,91.17
2023-03-21T08:25:53.018Z,90.19
2023-03-21T08:28:20.723Z,90.26
2023-03-21T08:30:49.977Z,89.15
2023-03-21T08:33:18.804Z,90.07
2023-03-21T08:35:46.775Z,91.49
2023-03-21T08:38:14.517Z,90.62
2023-03-21T08:40:42.223Z,89.11
2023-03-21T08:43:09.775Z,88.80
2023-03-21T08:45:37.519Z,88.71
2023-03-21T08:48:06.769Z,88.61
2023-03-21T08:50:34.198Z,90.08
2023-03-21T08:53:01.650Z,89.48
2023-03-21T08:55:29.158Z,88.74
2023-03-21T08:57:58.004Z,88.70
2023-03-21T09:00:25.764Z,87.77
2023-03-21T09:02:54.577Z,88.15
2023-03-21T09:05:25.823Z,88.79
2023-03-21T09:07:53.482Z,88.47
2023-03-21T09:10:22.595Z,88.72
2023-03-21T09:12:50.787Z,88.25
2023-03-21T09:15:20.436Z,88.08
2023-03-21T09:17:52.777Z,88.75
2023-03-21T09:20:21.153Z,88.08
2023-03-21T09:22:50.401Z,88.31
2023-03-21T09:25:18.822Z,87.91
2023-03-21T09:27:46.796Z,87.93
2023-03-21T09:30:16.328Z,88.10
2023-03-21T09:32:48.712Z,89.59
2023-03-21T09:35:18.641Z,88.28
2023-03-21T09:37:47.267Z,88.01
2023-03-21T09:40:20.691Z,88.04
2023-03-21T09:42:51.569Z,89.10
2023-03-21T09:45:19.996Z,88.85
2023-03-21T09:47:53.401Z,88.53
2023-03-21T09:50:23.163Z,88.59
2023-03-21T09:52:51.849Z,89.30
2023-03-21T09:55:21.497Z,88.82
2023-03-21T09:57:50.625Z,88.89
2023-03-21T10:00:20.556Z,88.79
2023-03-21T10:02:49.567Z,88.56
2023-03-21T10:05:19.282Z,89.15
2023-03-21T10:07:47.744Z,88.75
2023-03-21T10:10:19.147Z,88.76
2023-03-21T10:12:48.022Z,88.92
2023-03-21T10:15:16.995Z,88.67
2023-03-21T10:17:44.830Z,88.46
2023-03-21T10:20:14.819Z,88.61
2023-03-21T10:22:42.326Z,88.55
2023-03-21T10:25:11.770Z,89.89
2023-03-21T10:27:39.255Z,89.16
2023-03-21T10:30:10.194Z,88.71
2023-03-21T10:32:37.792Z,88.99
2023-03-21T10:35:06.515Z,88.79
2023-03-21T10:37:36.257Z,89.33
2023-03-21T10:40:06.345Z,88.49
2023-03-21T10:42:35.901Z,89.25
2023-03-21T10:45:03.541Z,89.35
2023-03-21T10:47:33.644Z,88.75
2023-03-21T10:50:08.101Z,88.71
2023-03-21T10:52:36.541Z,88.81
2023-03-21T10:55:16.883Z,88.67
2023-03-21T10:57:44.408Z,88.75
2023-03-21T11:00:17.019Z,89.01
2023-03-21T11:02:47.670Z,89.39
2023-03-21T11:05:20.797Z,89.05
2023-03-21T11:07:48.441Z,89.12
2023-03-21T11:10:28.125Z,90.07
2023-03-21T11:12:57.080Z,89.88
2023-03-21T11:15:30.185Z,89.55
2023-03-21T11:17:59.188Z,90.02
2023-03-21T11:20:26.734Z,89.43
2023-03-21T11:22:55.387Z,89.57
2023-03-21T11:25:23.800Z,89.58
2023-03-21T11:27:51.916Z,89.07
2023-03-21T11:30:21.341Z,91.18
2023-03-21T11:32:51.842Z,89.49
2023-03-21T11:35:21.582Z,89.35
2023-03-21T11:37:53.193Z,89.45
2023-03-21T11:40:23.254Z,89.57
2023-03-21T11:42:51.898Z,89.18
2023-03-21T11:45:20.229Z,89.80
2023-03-21T11:47:47.833Z,88.84
2023-03-21T11:50:16.842Z,90.03
2023-03-21T11:52:47.332Z,89.23
2023-03-21T11:55:20.217Z,88.73
2023-03-21T11:57:49.651Z,88.82
2023-03-21T12:00:20.811Z,89.05
2023-03-21T12:02:55.315Z,89.10
2023-03-21T12:05:25.115Z,89.33
2023-03-21T12:07:55.533Z,88.34
2023-03-21T12:10:27.732Z,88.40
2023-03-21T12:12:56.617Z,88.85
2023-03-21T12:15:25.635Z,92.17
2023-03-21T12:17:55.933Z,89.30
2023-03-21T12:20:28.123Z,88.47
2023-03-21T12:23:00.737Z,88.50
2023-03-21T12:25:28.969Z,88.47
2023-03-21T12:28:02.818Z,88.41
2023-03-21T12:30:33.196Z,88.71
2023-03-21T12:33:07.992Z,88.40
2023-03-21T12:35:39.313Z,88.87
2023-03-21T12:38:12.670Z,88.43
2023-03-21T12:41:13.571Z,88.99
2023-03-21T12:43:42.425Z,88.52
2023-03-21T12:46:11.564Z,88.14
2023-03-21T12:48:40.636Z,87.93
2023-03-21T12:51:09.417Z,87.71
2023-03-21T12:53:40.417Z,87.90
2023-03-21T12:56:08.956Z,87.98
2023-03-21T12:58:41.046Z,89.22
2023-03-21T13:01:09.726Z,88.11
2023-03-21T13:03:40.496Z,88.06
2023-03-21T13:06:08.669Z,87.82
2023-03-21T13:08:37.365Z,87.61
2023-03-21T13:11:06.740Z,87.43
2023-03-21T13:13:35.178Z,87.55
2023-03-21T13:16:07.521Z,87.49
2023-03-21T13:18:50.061Z,87.81
2023-03-21T13:21:19.004Z,87.28
2023-03-21T13:23:56.361Z,87.70
2023-03-21T13:26:32.495Z,87.78
2023-03-21T13:29:00.678Z,87.47
2023-03-21T13:31:33.786Z,87.83
2023-03-21T13:34:09.063Z,87.54
2023-03-21T13:36:38.009Z,88.08
2023-03-21T13:39:06.969Z,88.07
2023-03-21T13:41:36.263Z,88.00
2023-03-21T13:44:08.243Z,87.63
2023-03-21T13:46:50.572Z,88.02
2023-03-21T13:49:27.600Z,87.72
2023-03-21T13:51:55.536Z,87.67
2023-03-21T13:54:25.375Z,87.81
2023-03-21T13:56:55.139Z,88.40
2023-03-21T13:59:36.875Z,87.58
2023-03-21T14:02:09.418Z,87.47
2023-03-21T14:04:42.822Z,87.42
2023-03-21T14:07:22.810Z,87.57
2023-03-21T14:09:50.746Z,87.24
2023-03-21T14:12:19.877Z,88.00
2023-03-21T14:14:48.450Z,87.21
2023-03-21T14:17:16.533Z,87.23
2023-03-21T14:19:43.974Z,87.19
2023-03-21T14:22:11.960Z,87.46
2023-03-21T14:24:41.252Z,87.44
2023-03-21T14:27:08.874Z,87.46
2023-03-21T14:29:37.800Z,87.20
2023-03-21T14:32:05.697Z,87.50
2023-03-21T14:34:34.080Z,87.08
2023-03-21T14:37:01.576Z,87.26
2023-03-21T14:39:29.996Z,86.98
2023-03-21T14:41:58.539Z,86.73
2023-03-21T14:44:27.538Z,86.47
2023-03-21T14:47:00.636Z,86.56
2023-03-21T14:49:28.617Z,86.26
2023-03-21T14:51:56.648Z,86.29
2023-03-21T14:54:24.822Z,86.35
2023-03-21T14:56:53.378Z,86.43
2023-03-21T14:59:21.936Z,86.34
2023-03-21T15:01:49.889Z,86.57
2023-03-21T15:04:18.867Z,86.43
2023-03-21T15:06:50.247Z,86.46
2023-03-21T15:09:17.769Z,86.41
2023-03-21T15:11:49.774Z,85.91
2023-03-21T15:14:17.306Z,85.96
2023-03-21T15:16:44.806Z,85.63
2023-03-21T15:19:12.880Z,85.39
2023-03-21T15:21:42.274Z,85.12
2023-03-21T15:24:13.801Z,84.91
2023-03-21T15:26:41.502Z,85.13
2023-03-21T15:29:09.181Z,84.88
2023-03-21T15:31:37.574Z,84.75
2023-03-21T15:34:05.429Z,84.83
2023-03-21T15:36:33.957Z,84.66
2023-03-21T15:39:03.925Z,83.90
2023-03-21T15:41:32.197Z,83.68
2023-03-21T15:44:04.142Z,83.40
2023-03-21T15:46:35.701Z,83.83
2023-03-21T15:49:19.258Z,83.77
2023-03-21T15:51:47.582Z,82.96
2023-03-21T15:54:17.142Z,84.17
2023-03-21T15:56:45.946Z,83.79
2023-03-21T15:59:13.940Z,84.00
2023-03-21T16:01:41.506Z,84.52
2023-03-21T16:04:09.723Z,84.28
2023-03-21T16:06:38.061Z,84.66
2023-03-21T16:09:06.257Z,84.35
2023-03-21T16:11:40.090Z,84.27
2023-03-21T16:14:07.723Z,84.45
2023-03-21T16:16:35.422Z,82.98
2023-03-21T16:19:03.580Z,83.45
2023-03-21T16:21:31.795Z,83.56
2023-03-21T16:23:59.725Z,84.30
2023-03-21T16:26:28.661Z,84.15
2023-03-21T16:28:57.876Z,84.58
2023-03-21T16:31:26.158Z,84.59
2023-03-21T16:33:55.870Z,84.26
2023-03-21T16:36:24.469Z,84.50
2023-03-21T16:38:52.700Z,84.43
2023-03-21T16:41:20.462Z,84.86
2023-03-21T16:43:47.941Z,84.08
2023-03-21T16:46:17.048Z,85.01
2023-03-21T16:48:45.098Z,84.76
2023-03-21T16:51:13.782Z,85.11
2023-03-21T16:53:41.351Z,85.13
2023-03-21T16:56:11.232Z,85.70
2023-03-21T16:58:38.759Z,85.29
2023-03-21T17:01:06.471Z,85.34
2023-03-21T17:03:35.729Z,85.21
2023-03-21T17:06:03.305Z,85.91
2023-03-21T17:08:31.460Z,85.77
2023-03-21T17:10:59.872Z,85.80
2023-03-21T17:13:27.406Z,85.85
2023-03-21T17:15:54.941Z,85.70
2023-03-21T17:18:22.408Z,85.84
2023-03-21T17:20:51.328Z,86.19
2023-03-21T17:23:18.827Z,85.93
2023-03-21T17:25:46.387Z,85.53
2023-03-21T17:28:13.850Z,85.88
2023-03-21T17:30:41.832Z,86.12
2023-03-21T17:33:09.549Z,85.37
2023-03-21T17:35:37.181Z,86.24
2023-03-21T17:38:06.185Z,86.03
2023-03-21T17:40:34.603Z,85.72
2023-03-21T17:43:02.143Z,86.10
2023-03-21T17:45:29.689Z,86.12
2023-03-21T17:47:57.252Z,86.27
2023-03-21T17:50:25.340Z,86.08
2023-03-21T17:52:53.089Z,86.35
2023-03-21T17:55:22.053Z,86.32
2023-03-21T17:57:49.770Z,86.30
2023-03-21T18:00:18.371Z,86.42
2023-03-21T18:02:45.962Z,86.63
2023-03-21T18:05:13.572Z,86.43
2023-03-21T18:10:31.304Z,86.51
2023-03-21T18:12:59.052Z,86.72
2023-03-21T18:15:30.137Z,86.57
2023-03-21T18:17:58.277Z,86.80
2023-03-21T18:20:44.726Z,86.35
2023-03-21T18:23:14.628Z,86.47
2023-03-21T18:25:43.467Z,86.28
2023-03-21T18:28:12.465Z,86.60
2023-03-21T18:33:28.517Z,86.66
2023-03-21T18:35:59.975Z,86.71
2023-03-21T18:38:27.908Z,87.05
2023-03-21T18:40:56.945Z,86.98
2023-03-21T18:43:59.848Z,87.05
2023-03-21T18:46:12.731Z,87.01
2023-03-21T18:48:40.390Z,87.61
2023-03-21T18:51:09.570Z,87.28
2023-03-21T18:53:37.196Z,87.20
2023-03-21T18:56:10.205Z,87.32
2023-03-21T18:58:38.604Z,87.55
2023-03-21T19:01:06.344Z,87.44
2023-03-21T19:03:37.110Z,87.62
2023-03-21T19:06:05.688Z,87.83
2023-03-21T19:08:34.606Z,87.75
2023-03-21T19:11:05.911Z,87.65
2023-03-21T19:13:35.431Z,87.75
2023-03-21T19:16:03.210Z,88.06
2023-03-21T19:18:50.054Z,87.88
2023-03-21T19:21:19.132Z,88.30
2023-03-21T19:26:34.204Z,88.65
2023-03-21T19:29:03.314Z,88.59
2023-03-21T19:31:31.055Z,88.52
2023-03-21T19:33:58.723Z,88.63
2023-03-21T19:36:26.692Z,89.12
2023-03-21T19:38:54.233Z,88.82
2023-03-21T19:41:21.874Z,88.78
2023-03-21T19:43:55.234Z,88.96
2023-03-21T19:46:26.496Z,89.07
2023-03-21T19:48:56.597Z,88.92
2023-03-21T19:51:28.831Z,89.06
2023-03-21T19:53:57.709Z,89.17
2023-03-21T19:56:27.393Z,89.01
2023-03-21T19:58:55.229Z,89.48
2023-03-21T20:01:23.079Z,88.99
2023-03-21T20:03:52.175Z,89.26
2023-03-21T20:06:19.913Z,89.19
2023-03-21T20:11:35.488Z,90.86
2023-03-21T20:14:03.236Z,89.46
2023-03-21T20:16:34.935Z,89.80
2023-03-21T20:19:04.498Z,89.55
2023-03-21T20:21:41.145Z,89.49
2023-03-21T20:24:13.783Z,89.58
2023-03-21T20:26:41.276Z,89.62
2023-03-21T20:29:51.839Z,89.50
2023-03-21T20:31:56.407Z,89.85
2023-03-21T20:34:25.340Z,89.51
2023-03-21T20:36:53.261Z,89.60
2023-03-21T20:39:20.862Z,89.71
2023-03-21T20:41:48.470Z,89.81
2023-03-21T20:44:48.104Z,89.88
2023-03-21T20:47:06.445Z,89.97
2023-03-21T20:49:35.421Z,90.07
2023-03-21T20:54:54.238Z,90.24
2023-03-21T20:57:22.226Z,89.69
2023-03-21T20:59:50.054Z,90.40
2023-03-21T21:02:17.558Z,89.98
2023-03-21T21:05:17.318Z,89.67
2023-03-21T21:07:36.098Z,89.66
2023-03-21T21:10:04.019Z,90.24
2023-03-21T21:12:31.626Z,90.63
2023-03-21T21:14:59.145Z,90.16
2023-03-21T21:17:57.889Z,90.15
2023-03-21T21:20:17.674Z,90.04
2023-03-21T21:22:46.118Z,90.38
2023-03-21T21:25:24.109Z,90.35
2023-03-21T21:27:51.598Z,90.57
2023-03-21T21:30:19.129Z,90.59
2023-03-21T21:32:46.678Z,91.64
2023-03-21T21:35:14.194Z,91.13
2023-03-21T21:37:43.345Z,91.31
2023-03-21T21:40:12.742Z,91.01
2023-03-21T21:42:41.182Z,90.72
2023-03-21T21:45:09.587Z,90.44
2023-03-21T21:47:37.291Z,90.84
2023-03-21T21:50:05.302Z,90.51
2023-03-21T21:52:32.842Z,90.43
2023-03-21T21:55:04.087Z,90.43
2023-03-21T21:57:34.738Z,90.77
2023-03-21T22:00:06.131Z,90.80
2023-03-21T22:02:33.849Z,90.79
2023-03-21T22:05:01.399Z,91.05
2023-03-21T22:07:28.913Z,91.37
2023-03-21T22:09:56.661Z,90.95
2023-03-21T22:12:25.543Z,91.07
2023-03-21T22:14:53.103Z,91.11
2023-03-21T22:17:20.631Z,90.76
2023-03-21T22:20:04.320Z,91.18
2023-03-21T22:22:32.539Z,90.44
2023-03-21T22:25:00.112Z,91.40
2023-03-21T22:27:29.022Z,90.35
2023-03-21T22:29:56.591Z,91.18
2023-03-21T22:32:24.159Z,90.35
2023-03-21T22:34:51.637Z,90.03
2023-03-21T22:37:19.091Z,90.81
2023-03-21T22:39:46.653Z,90.47
2023-03-21T22:42:14.138Z,91.32
2023-03-21T22:44:43.076Z,90.65
2023-03-21T22:47:11.162Z,90.26
2023-03-21T22:49:38.920Z,90.25
2023-03-21T22:52:06.936Z,90.16
2023-03-21T22:54:34.478Z,90.24
2023-03-21T22:57:02.046Z,90.21
2023-03-21T22:59:29.629Z,90.11
2023-03-21T23:01:58.529Z,90.48
2023-03-21T23:04:26.722Z,90.13
2023-03-21T23:06:54.350Z,90.65
2023-03-21T23:09:21.932Z,90.20
2023-03-21T23:11:49.747Z,90.17
2023-03-21T23:14:17.509Z,89.88
2023-03-21T23:16:45.299Z,91.09
2023-03-21T23:19:14.365Z,90.69
2023-03-21T23:21:44.387Z,89.99
2023-03-21T23:24:11.891Z,90.36
2023-03-21T23:26:39.554Z,90.22
2023-03-21T23:29:07.899Z,90.18
2023-03-21T23:31:35.438Z,89.90
2023-03-21T23:34:03.223Z,90.18
2023-03-21T23:36:32.095Z,89.77
2023-03-21T23:38:59.634Z,89.89
2023-03-21T23:41:27.199Z,90.18
2023-03-21T23:43:54.781Z,90.08
2023-03-21T23:46:22.380Z,90.02
2023-03-21T23:48:49.919Z,90.56
2023-03-21T23:51:17.860Z,89.90
2023-03-21T23:53:47.020Z,90.12
2023-03-21T23:56:14.976Z,89.99
2023-03-21T23:58:42.496Z,90.18
